METAR Data
IDs: Format: Raw Decoded Include TAF

Data at: 0131 UTC 06 Dec 2019

KMAO 060115Z AUTO 00000KT 10SM CLR 03/00 A3020 RMK AO2
KMAO 060055Z AUTO 00000KT 10SM CLR 05/00 A3020 RMK AO2
KMAO 060035Z AUTO 00000KT 10SM CLR 04/00 A3019 RMK AO2
KMAO 060015Z AUTO 00000KT 10SM CLR 05/00 A3019 RMK AO2
KMAO 052355Z AUTO 00000KT 10SM CLR 06/00 A3017 RMK AO2
KMAO 052335Z AUTO 00000KT 10SM CLR 07/00 A3016 RMK AO2
KMAO 052315Z AUTO 00000KT 10SM CLR 07/00 A3015 RMK AO2
KMAO 052255Z AUTO 00000KT 10SM CLR 08/00 A3014 RMK AO2
KMAO 052235Z AUTO 00000KT 10SM CLR 09/00 A3013 RMK AO2
KMAO 052215Z AUTO 00000KT 10SM CLR 10/00 A3013 RMK AO2
KMAO 052155Z AUTO 00000KT 10SM CLR 14/M03 A3012 RMK AO2
KMAO 052135Z AUTO 29004KT 10SM CLR 15/M03 A3011 RMK AO2
KMAO 052115Z AUTO 27005KT 10SM CLR 15/M03 A3010 RMK AO2
KMAO 052055Z AUTO 31005KT 10SM CLR 15/M03 A3010 RMK AO2
KMAO 052035Z AUTO 31007KT 10SM CLR 15/M04 A3008 RMK AO2
KMAO 052015Z AUTO 27006KT 10SM CLR 16/M05 A3008 RMK AO2
KMAO 051955Z AUTO 33005KT 10SM CLR 16/M03 A3008 RMK AO2
KMAO 051935Z AUTO 26006KT 10SM CLR 16/M03 A3008 RMK AO2
KMAO 051915Z AUTO 29006KT 10SM CLR 15/M03 A3008 RMK AO2
KMAO 051855Z AUTO 28006KT 10SM CLR 15/M03 A3008 RMK AO2
KMAO 051835Z AUTO 31005KT 10SM CLR 15/M03 A3008 RMK AO2
KMAO 051815Z AUTO 00000KT 10SM CLR 14/M03 A3009 RMK AO2
KMAO 051755Z AUTO 28005KT 10SM CLR 15/M03 A3010 RMK AO2
KMAO 051735Z AUTO 28006KT 10SM CLR 14/M02 A3010 RMK AO2
KMAO 051715Z AUTO 33006KT 10SM CLR 13/M03 A3010 RMK AO2
KMAO 051655Z AUTO 05003KT 10SM CLR 13/M03 A3011 RMK AO2
KMAO 051635Z AUTO 36005KT 10SM CLR 13/M03 A3011 RMK AO2
KMAO 051615Z AUTO 06007KT 10SM CLR 13/M03 A3011 RMK AO2
KMAO 051555Z AUTO 04006KT 10SM CLR 12/M02 A3011 RMK AO2
KMAO 051535Z AUTO 03007KT 10SM CLR 12/M01 A3011 RMK AO2
KMAO 051515Z AUTO 01006KT 10SM CLR 11/M01 A3011 RMK AO2
KMAO 051455Z AUTO 02006KT 10SM CLR 11/00 A3010 RMK AO2
KMAO 051435Z AUTO 36008KT 10SM CLR 10/00 A3008 RMK AO2
KMAO 051415Z AUTO 35005KT 10SM CLR 09/00 A3008 RMK AO2
KMAO 051355Z AUTO 33005KT 10SM CLR 08/00 A3008 RMK AO2
KMAO 051335Z AUTO 32005KT 10SM CLR 08/00 A3007 RMK AO2
KMAO 051315Z AUTO 00000KT 10SM CLR 07/00 A3005 RMK AO2
KMAO 051255Z AUTO 31003KT 10SM CLR 06/M01 A3004 RMK AO2
KMAO 051235Z AUTO 31004KT 10SM CLR 05/M01 A3002 RMK AO2
KMAO 051215Z AUTO 00000KT 10SM CLR 05/M01 A3001 RMK AO2
KMAO 051155Z AUTO 29004KT 10SM CLR 06/M01 A3000 RMK AO2
KMAO 051135Z AUTO 29006KT 10SM CLR 07/M01 A2998 RMK AO2
KMAO 051115Z AUTO 29007KT 10SM CLR 06/M01 A2997 RMK AO2
KMAO 051055Z AUTO 29005KT 10SM CLR 06/M01 A2995 RMK AO2
KMAO 051035Z AUTO 27005KT 10SM CLR 06/00 A2994 RMK AO2
KMAO 051015Z AUTO 26006KT 10SM CLR 06/00 A2993 RMK AO2
KMAO 050955Z AUTO 26006KT 10SM CLR 05/00 A2992 RMK AO2
KMAO 050935Z AUTO 27005KT 10SM CLR 06/00 A2991 RMK AO2
KMAO 050915Z AUTO 27005KT 10SM CLR 06/00 A2990 RMK AO2
KMAO 050855Z AUTO 27006KT 10SM CLR 07/00 A2989 RMK AO2
KMAO 050835Z AUTO 26006KT 10SM CLR 07/00 A2989 RMK AO2
KMAO 050815Z AUTO 27006KT 10SM CLR 07/00 A2988 RMK AO2
KMAO 050755Z AUTO 26006KT 10SM CLR 06/00 A2987 RMK AO2
KMAO 050735Z AUTO 25005KT 10SM CLR 06/00 A2986 RMK AO2
KMAO 050715Z AUTO 26006KT 10SM CLR 06/00 A2986 RMK AO2
KMAO 050655Z AUTO 26004KT 10SM CLR 06/00 A2985 RMK AO2
KMAO 050635Z AUTO 25005KT 10SM CLR 06/00 A2985 RMK AO2
KMAO 050615Z AUTO 26006KT 10SM CLR 06/00 A2985 RMK AO2
KMAO 050555Z AUTO 25005KT 7SM CLR 06/00 A2985 RMK AO2
KMAO 050535Z AUTO 25004KT 5SM HZ CLR 06/00 A2986 RMK AO2
KMAO 050515Z AUTO 25005KT 7SM CLR 06/00 A2985 RMK AO2
KMAO 050455Z AUTO 25005KT 7SM CLR 06/00 A2985 RMK AO2
KMAO 050435Z AUTO 25006KT 10SM CLR 06/01 A2984 RMK AO2
KMAO 050415Z AUTO 25006KT 10SM CLR 06/01 A2984 RMK AO2
KMAO 050355Z AUTO 24006KT 10SM CLR 06/01 A2983 RMK AO2
KMAO 050335Z AUTO 25008KT 10SM CLR 06/01 A2983 RMK AO2
KMAO 050315Z AUTO 24006KT 10SM CLR 06/01 A2982 RMK AO2
KMAO 050255Z AUTO 23005KT 10SM CLR 06/00 A2982 RMK AO2
KMAO 050235Z AUTO 23004KT 10SM CLR 07/00 A2982 RMK AO2
KMAO 050215Z AUTO 24005KT 10SM CLR 07/00 A2981 RMK AO2
KMAO 050155Z AUTO 24003KT 10SM CLR 07/00 A2981 RMK AO2
KMAO 050135Z AUTO 23004KT 10SM CLR 07/00 A2981 RMK AO2
KMAO 050115Z AUTO 23005KT 10SM CLR 07/00 A2980 RMK AO2
KMAO 050055Z AUTO 23005KT 10SM CLR 07/00 A2980 RMK AO2
KMAO 050035Z AUTO 23004KT 10SM CLR 09/00 A2979 RMK AO2
KMAO 050015Z AUTO 23005KT 10SM CLR 10/00 A2979 RMK AO2
KMAO 042355Z AUTO 24005KT 10SM CLR 08/00 A2979 RMK AO2
KMAO 042335Z AUTO 24004KT 10SM CLR 08/00 A2978 RMK AO2
KMAO 042315Z AUTO 25004KT 10SM CLR 09/00 A2978 RMK AO2
KMAO 042255Z AUTO 25004KT 10SM CLR 10/00 A2977 RMK AO2
KMAO 042235Z AUTO 25006KT 10SM CLR 11/00 A2976 RMK AO2
KMAO 042215Z AUTO 24008KT 10SM CLR 12/00 A2976 RMK AO2
KMAO 042155Z AUTO 25009KT 10SM CLR 13/00 A2975 RMK AO2
KMAO 042135Z AUTO 26010KT 10SM CLR 13/M01 A2974 RMK AO2
KMAO 042115Z AUTO 26009G14KT 10SM CLR 14/M01 A2974 RMK AO2
KMAO 042055Z AUTO 25008KT 10SM CLR 14/M01 A2974 RMK AO2
KMAO 042035Z AUTO 25009KT 10SM CLR 14/00 A2974 RMK AO2
KMAO 042015Z AUTO 25009KT 10SM CLR 15/00 A2974 RMK AO2
KMAO 041955Z AUTO 26012G17KT 10SM CLR 15/M01 A2974 RMK AO2
KMAO 041935Z AUTO 27012KT 10SM CLR 15/M02 A2973 RMK AO2
KMAO 041915Z AUTO 27007KT 10SM CLR 15/M01 A2973 RMK AO2
KMAO 041855Z AUTO 26010KT 10SM CLR 15/M01 A2973 RMK AO2
KMAO 041835Z AUTO 24010G14KT 10SM CLR 14/M01 A2974 RMK AO2
KMAO 041815Z AUTO 26006KT 10SM CLR 14/00 A2974 RMK AO2
KMAO 041755Z AUTO 25005KT 10SM CLR 13/M01 A2975 RMK AO2
KMAO 041735Z AUTO 25005KT 10SM CLR 13/M01 A2976 RMK AO2
KMAO 041715Z AUTO 30006KT 10SM CLR 12/M01 A2978 RMK AO2
KMAO 041655Z AUTO 23003KT 10SM CLR 11/00 A2979 RMK AO2
KMAO 041635Z AUTO 28003KT 10SM CLR 11/M01 A2981 RMK AO2
KMAO 041615Z AUTO 27003KT 10SM CLR 10/00 A2982 RMK AO2
KMAO 041555Z AUTO 32004KT 10SM CLR 10/01 A2983 RMK AO2
KMAO 041535Z AUTO 30006KT 10SM CLR 08/01 A2984 RMK AO2
KMAO 041515Z AUTO 29005KT 10SM CLR 08/02 A2984 RMK AO2
KMAO 041455Z AUTO 30005KT 10SM CLR 07/02 A2984 RMK AO2
KMAO 041435Z AUTO 29007KT 10SM CLR 06/02 A2984 RMK AO2
KMAO 041415Z AUTO 26003KT 10SM CLR 06/02 A2981 RMK AO2
KMAO 041355Z AUTO 26003KT 10SM CLR 05/02 A2981 RMK AO2
KMAO 041335Z AUTO 25004KT 10SM CLR 03/02 A2981 RMK AO2